Data for 03/15/2018

Time Sea-Level Adjusted Pressure Absolute Pressure Temperature Relative Humidity Dew Point   
(mb) (inHg) (mb) (inHg) (C) (F) (%) (C) (F)
00:05 1006 29.71 835 24.66 3.3 38 82 0.6 33
00:10 1006 29.71 835 24.66 3.2 37.8 82 0.5 32.9
00:15 1006 29.71 835 24.66 3.1 37.5 83 0.5 32.9
00:20 1006 29.71 835 24.66 3.1 37.5 84 0.6 33
00:25 1006 29.71 835 24.66 3.1 37.5 84 0.6 33
00:30 1006 29.71 835 24.66 3.1 37.5 84 0.6 33.1
00:35 1006 29.71 835 24.66 3.1 37.5 84 0.7 33.2
00:40 1006 29.71 835 24.66 3.1 37.5 84 0.6 33.1
00:45 1006 29.71 835 24.66 3 37.4 85 0.7 33.2
00:50 1006 29.71 835 24.66 3 37.3 85 0.7 33.2
00:55 1006 29.71 835 24.66 2.9 37.2 85 0.7 33.2
01:00 1006 29.71 835 24.66 2.8 37.1 86 0.7 33.2
01:05 1006 29.71 835 24.66 2.7 36.9 86 0.6 33.1
01:10 1005 29.68 835 24.66 2.6 36.7 86 0.5 32.9
01:15 1005 29.68 835 24.66 2.5 36.5 87 0.5 32.9
01:20 1005 29.68 835 24.66 2.5 36.5 86 0.4 32.8
01:25 1005 29.68 835 24.66 2.3 36.1 87 0.3 32.5
01:30 1005 29.68 835 24.66 2.1 35.8 87 0.2 32.3
01:35 1005 29.68 835 24.66 1.8 35.2 88 -0 32
01:40 1006 29.71 835 24.66 1.6 34.8 88 -0.1 31.7
01:45 1006 29.71 835 24.66 1.4 34.5 89 -0.3 31.5
01:50 1006 29.71 835 24.66 1.2 34.1 89 -0.4 31.2
01:55 1006 29.71 835 24.66 1 33.8 89 -0.5 31
02:00 1006 29.71 835 24.66 0.8 33.5 90 -0.6 30.9
02:05 1006 29.71 835 24.66 0.7 33.3 90 -0.7 30.8
02:10 1006 29.71 835 24.66 0.7 33.3 91 -0.6 30.9
02:15 1006 29.71 835 24.66 0.7 33.3 91 -0.6 30.9
02:20 1006 29.71 835 24.66 0.7 33.2 91 -0.7 30.8
02:25 1006 29.71 835 24.66 0.6 33.1 91 -0.7 30.7
02:30 1006 29.71 835 24.66 0.5 33 91 -0.7 30.7
02:35 1006 29.71 835 24.66 0.5 32.8 91 -0.8 30.6
02:40 1006 29.71 835 24.66 0.4 32.8 91 -0.8 30.6
02:45 1006 29.71 835 24.66 0.4 32.7 92 -0.8 30.6
02:50 1006 29.71 835 24.66 0.4 32.7 92 -0.8 30.6
02:55 1006 29.71 835 24.66 0.3 32.5 92 -0.9 30.5
03:00 1006 29.71 835 24.66 0.3 32.6 92 -0.8 30.5
03:05 1006 29.71 835 24.66 0.3 32.5 92 -0.9 30.5
03:10 1006 29.71 835 24.66 0.1 32.3 92 -1 30.3
03:15 1005 29.68 835 24.66 -0 31.9 93 -1.1 30
03:20 1005 29.68 835 24.66 -0.1 31.8 93 -1.1 30
03:25 1005 29.68 834 24.63 -0.1 31.8 93 -1.1 30
03:30 1005 29.68 834 24.63 -0.1 31.8 93 -1.1 30
03:35 1005 29.68 834 24.63 -0 32 93 -1 30.2
03:40 1005 29.68 834 24.63 0 32.1 93 -0.9 30.4
03:45 1005 29.68 834 24.63 0.1 32.2 93 -0.8 30.5
03:50 1005 29.68 834 24.63 0.2 32.3 93 -0.8 30.5
03:55 1005 29.68 834 24.63 0.1 32.2 93 -0.8 30.5
04:00 1005 29.68 834 24.63 0.1 32.2 93 -0.9 30.4
04:05 1004 29.65 833 24.6 0 32.1 93 -0.9 30.4
04:10 1005 29.68 834 24.63 0 32 93 -1 30.3
04:15 1005 29.68 834 24.63 0.1 32.2 94 -0.8 30.5
04:20 1005 29.68 834 24.63 0.1 32.2 93 -0.8 30.5
04:25 1005 29.68 834 24.63 0.1 32.1 93 -0.9 30.4
04:30 1005 29.68 834 24.63 0.1 32.1 94 -0.9 30.5
04:35 1005 29.68 834 24.63 0.2 32.3 94 -0.7 30.7
04:40 1005 29.68 834 24.63 0.2 32.3 94 -0.7 30.7
04:45 1005 29.68 834 24.63 0.2 32.3 94 -0.7 30.7
04:50 1005 29.68 834 24.63 0.3 32.5 94 -0.7 30.8
04:55 1005 29.68 834 24.63 0.3 32.6 94 -0.6 30.9
05:00 1005 29.68 834 24.63 0.3 32.6 94 -0.6 31
05:05 1005 29.68 834 24.63 0.3 32.6 94 -0.6 31
05:10 1005 29.68 834 24.63 0.4 32.7 94 -0.6 31
05:15 1005 29.68 834 24.63 0.4 32.7 94 -0.5 31
05:20 1005 29.68 834 24.63 0.4 32.7 93 -0.5 31
05:25 1005 29.68 834 24.63 0.4 32.7 93 -0.6 31
05:30 1005 29.68 834 24.63 0.4 32.7 93 -0.6 31
05:35 1005 29.68 834 24.63 0.4 32.7 93 -0.5 31
05:40 1005 29.68 834 24.63 0.4 32.7 93 -0.6 31
05:45 1005 29.68 834 24.63 0.4 32.7 93 -0.6 31
05:50 1005 29.68 834 24.63 0.4 32.7 93 -0.6 31
05:55 1005 29.68 834 24.63 0.4 32.7 93 -0.6 30.9
06:00 1005 29.68 834 24.63 0.2 32.4 93 -0.8 30.6
06:05 1005 29.68 834 24.63 0 32 93 -1 30.3
06:10 1005 29.68 834 24.63 0 32 93 -0.9 30.3
06:15 1005 29.68 835 24.66 0.1 32.1 93 -0.9 30.4
06:20 1005 29.68 834 24.63 0.1 32.1 93 -0.9 30.4
06:25 1005 29.68 835 24.66 0.1 32.1 94 -0.9 30.5
06:30 1005 29.68 835 24.66 0.1 32.2 94 -0.8 30.6
06:35 1005 29.68 835 24.66 0.2 32.3 94 -0.7 30.7
06:40 1005 29.68 835 24.66 0.3 32.5 93 -0.7 30.8
06:45 1005 29.68 834 24.63 0.3 32.6 94 -0.6 31
06:50 1005 29.68 834 24.63 0.4 32.7 93 -0.6 31
06:55 1005 29.68 834 24.63 0.4 32.7 93 -0.5 31
07:00 1005 29.68 834 24.63 0.3 32.6 93 -0.6 30.9
07:05 1005 29.68 834 24.63 0.3 32.5 93 -0.7 30.7
07:10 1005 29.68 834 24.63 0.3 32.5 93 -0.7 30.8
07:15 1005 29.68 834 24.63 0.3 32.5 93 -0.7 30.7
07:20 1005 29.68 835 24.66 0.1 32.3 93 -0.8 30.5
07:25 1005 29.68 835 24.66 0.1 32.1 93 -0.9 30.4
07:30 1005 29.68 835 24.66 0.1 32.1 93 -0.9 30.4
07:35 1005 29.68 835 24.66 0.2 32.4 94 -0.7 30.8
07:40 1005 29.68 835 24.66 0.3 32.5 93 -0.6 30.8
07:45 1005 29.68 835 24.66 0.3 32.6 94 -0.6 31
07:50 1005 29.68 835 24.66 0.5 32.8 93 -0.5 31.1
07:55 1005 29.68 835 24.66 0.6 33 93 -0.4 31.3
08:00 1005 29.68 835 24.66 0.7 33.2 93 -0.3 31.4
08:05 1005 29.68 835 24.66 0.7 33.2 93 -0.3 31.4
08:10 1005 29.68 835 24.66 0.8 33.4 93 -0.3 31.5
08:15 1006 29.71 835 24.66 0.8 33.5 93 -0.3 31.5
08:20 1005 29.68 835 24.66 0.9 33.6 92 -0.2 31.7
08:25 1005 29.68 835 24.66 0.9 33.6 92 -0.2 31.6
08:30 1006 29.71 835 24.66 1 33.7 92 -0.2 31.6
08:35 1006 29.71 835 24.66 1.1 33.9 91 -0.2 31.7
08:40 1005 29.68 835 24.66 1.2 34.1 91 -0.2 31.7
08:45 1005 29.68 835 24.66 1.2 34.2 90 -0.2 31.6
08:50 1005 29.68 835 24.66 1.3 34.3 90 -0.2 31.7
08:55 1005 29.68 835 24.66 1.3 34.3 90 -0.2 31.6
09:00 1005 29.68 835 24.66 1.3 34.3 89 -0.3 31.5
09:05 1005 29.68 835 24.66 1.2 34.1 89 -0.4 31.2
09:10 1006 29.71 835 24.66 0.9 33.7 90 -0.6 31
09:15 1005 29.68 835 24.66 0.9 33.6 90 -0.6 30.9
09:20 1005 29.68 835 24.66 0.9 33.6 90 -0.6 31
09:25 1006 29.71 835 24.66 0.9 33.7 90 -0.5 31.1
09:30 1006 29.71 835 24.66 1 33.9 90 -0.4 31.2
09:35 1006 29.71 835 24.66 1.2 34.1 90 -0.3 31.5
09:40 1006 29.71 835 24.66 1.3 34.3 89 -0.3 31.5
09:45 1006 29.71 835 24.66 1.3 34.3 89 -0.3 31.4
09:50 1006 29.71 835 24.66 1.3 34.3 89 -0.4 31.3
09:55 1006 29.71 835 24.66 1.3 34.3 89 -0.4 31.3
10:00 1006 29.71 835 24.66 1.3 34.3 89 -0.4 31.4
10:05 1006 29.71 835 24.66 1.4 34.5 88 -0.3 31.4
10:10 1006 29.71 835 24.66 1.2 34.2 88 -0.5 31.2
10:15 1006 29.71 835 24.66 1.1 34 89 -0.4 31.2
10:20 1006 29.71 835 24.66 1.3 34.3 89 -0.4 31.3
10:25 1006 29.71 835 24.66 1.2 34.2 89 -0.4 31.2
10:30 1006 29.71 835 24.66 1.2 34.1 89 -0.4 31.3
10:35 1006 29.71 835 24.66 1.3 34.3 89 -0.3 31.4
10:40 1006 29.71 835 24.66 1.4 34.5 89 -0.3 31.5
10:45 1006 29.71 835 24.66 1.5 34.7 88 -0.2 31.6
10:50 1006 29.71 835 24.66 1.7 35 88 -0.2 31.7
10:55 1006 29.71 835 24.66 1.8 35.2 87 -0.2 31.7
11:00 1006 29.71 835 24.66 1.9 35.4 86 -0.2 31.7
11:05 1006 29.71 835 24.66 1.9 35.4 85 -0.3 31.5
11:10 1006 29.71 835 24.66 1.5 34.7 87 -0.4 31.3
11:15 1006 29.71 835 24.66 1.4 34.4 87 -0.6 31
11:20 1006 29.71 835 24.66 1.1 33.9 90 -0.4 31.3
11:25 1006 29.71 835 24.66 1.4 34.4 90 -0.1 31.9
11:30 1006 29.71 835 24.66 1.7 35.1 89 0.1 32.3
11:35 1006 29.71 835 24.66 1.9 35.5 88 0.2 32.4
11:40 1006 29.71 835 24.66 2.1 35.7 87 0.1 32.2
11:45 1006 29.71 836 24.69 2.2 35.9 86 0 32.1
11:50 1006 29.71 836 24.69 2 35.6 86 -0.2 31.7
11:55 1006 29.71 836 24.69 1.8 35.2 86 -0.3 31.4
12:00 1007 29.74 836 24.69 1.4 34.6 87 -0.5 31.2
12:05 1007 29.74 836 24.69 1.4 34.5 88 -0.4 31.3
12:10 1007 29.74 836 24.69 1.6 34.8 87 -0.3 31.4
12:15 1007 29.74 836 24.69 1.7 35.1 87 -0.2 31.7
12:20 1007 29.74 836 24.69 1.9 35.5 87 -0.1 31.8
12:25 1007 29.74 836 24.69 1.9 35.5 86 -0.1 31.8
12:30 1007 29.74 836 24.69 2.2 35.9 86 0.1 32.1
12:35 1007 29.74 836 24.69 2.3 36.2 85 0.1 32.1
12:40 1007 29.74 836 24.69 2.4 36.3 84 0 32.1
12:45 1007 29.74 836 24.69 2.5 36.4 84 0 32.1
12:50 1007 29.74 836 24.69 2.4 36.3 85 0 32.1
12:55 1007 29.74 836 24.69 2.3 36.2 84 -0 31.9
13:00 1007 29.74 836 24.69 2.4 36.3 84 0 32
13:05 1007 29.74 836 24.69 2.5 36.4 84 0 32.1
13:10 1007 29.74 836 24.69 2.8 37.1 82 0.1 32.2
13:15 1007 29.74 836 24.69 3 37.5 82 0.2 32.4
13:20 1007 29.74 836 24.69 2.8 37 82 -0.1 31.9
13:25 1007 29.74 836 24.69 2.7 36.8 82 -0.1 31.9
13:30 1007 29.74 836 24.69 2.5 36.5 83 -0 31.9
13:35 1007 29.74 836 24.69 2.4 36.4 83 -0.1 31.8
13:40 1007 29.74 836 24.69 2.4 36.2 83 -0.3 31.5
13:45 1007 29.74 836 24.69 2.2 35.9 85 -0.1 31.9
13:50 1007 29.74 836 24.69 2.2 35.9 85 -0.1 31.8
13:55 1007 29.74 836 24.69 2.2 36 84 -0.3 31.5
14:00 1007 29.74 836 24.69 2.1 35.8 85 -0.1 31.8
14:05 1007 29.74 836 24.69 2.3 36.1 84 -0.2 31.7
14:10 1007 29.74 836 24.69 2.4 36.3 84 0 32.1
14:15 1007 29.74 836 24.69 2.4 36.4 84 -0 31.9
14:20 1007 29.74 836 24.69 2.6 36.6 84 0.2 32.3
14:25 1007 29.74 836 24.69 2.7 36.8 83 0 32
14:30 1007 29.74 836 24.69 2.8 37 80 -0.3 31.5
14:35 1007 29.74 836 24.69 2.5 36.5 82 -0.2 31.6
14:40 1007 29.74 836 24.69 2.6 36.6 82 -0.3 31.5
14:45 1007 29.74 836 24.69 2.6 36.6 83 -0 31.9
14:50 1007 29.74 836 24.69 2.8 37 82 -0.1 31.9
14:55 1007 29.74 836 24.69 2.7 36.8 82 -0 32
15:00 1007 29.74 836 24.69 2.5 36.5 84 0.1 32.1
15:05 1007 29.74 836 24.69 2.4 36.4 83 -0.1 31.8
15:10 1007 29.74 836 24.69 2.4 36.2 83 -0.2 31.7
15:15 1007 29.74 836 24.69 2.2 36 85 -0.1 31.8
15:20 1007 29.74 837 24.72 2.2 35.9 84 -0.2 31.7
15:25 1007 29.74 837 24.72 2.1 35.7 85 -0.2 31.7
15:30 1007 29.74 837 24.72 2.3 36.1 85 0 32
15:35 1007 29.74 837 24.72 2.6 36.6 83 -0 32
15:40 1007 29.74 837 24.72 2.4 36.3 85 0.1 32.2
15:45 1007 29.74 837 24.72 2.3 36.2 84 -0 31.9
15:50 1007 29.74 837 24.72 2.4 36.3 85 0.2 32.3
15:55 1007 29.74 837 24.72 2.6 36.6 83 -0 32
16:00 1008 29.77 837 24.72 2.5 36.5 84 0.1 32.2
16:05 1008 29.77 837 24.72 2.6 36.6 85 0.2 32.4
16:10 1008 29.77 837 24.72 2.8 37 82 0.1 32.2
16:15 1008 29.77 837 24.72 3 37.3 82 0.1 32.3
16:20 1008 29.77 837 24.72 3 37.4 82 0.2 32.3
16:25 1008 29.77 837 24.72 3 37.4 81 0 32.1
16:30 1008 29.77 837 24.72 2.8 37.1 82 0 32.1
16:35 1008 29.77 837 24.72 2.9 37.3 82 0.1 32.2
16:40 1008 29.77 837 24.72 3.2 37.8 79 0 32
16:45 1008 29.77 837 24.72 4 39.2 72 -0.6 30.8
16:50 1008 29.77 837 24.72 3.7 38.7 74 -0.6 31
16:55 1008 29.77 837 24.72 3.8 38.8 73 -0.5 31
17:00 1008 29.77 837 24.72 3.7 38.7 73 -0.6 31
17:05 1008 29.77 837 24.72 3.6 38.5 73 -0.7 30.7
17:10 1008 29.77 837 24.72 4 39.2 71 -0.7 30.7
17:15 1008 29.77 837 24.72 4.1 39.4 72 -0.5 31.1
17:20 1008 29.77 837 24.72 4.5 40.1 69 -0.7 30.7
17:25 1008 29.77 837 24.72 4.5 40.1 71 -0.3 31.5
17:30 1008 29.77 837 24.72 4.5 40 70 -0.6 31
17:35 1008 29.77 837 24.72 3.9 39.1 71 -0.8 30.6
17:40 1008 29.77 837 24.72 3.9 39 69 -1.2 29.8
17:45 1008 29.77 837 24.72 4.3 39.7 68 -1.1 30
17:50 1008 29.77 837 24.72 5.1 41.1 69 -0 31.9
17:55 1008 29.77 837 24.72 5.5 41.9 69 0.3 32.6
18:00 1008 29.77 837 24.72 5.6 42.1 63 -0.8 30.5
18:05 1008 29.77 837 24.72 5.3 41.5 68 -0.2 31.7
18:10 1008 29.77 837 24.72 5.1 41.3 71 0.2 32.4
18:15 1008 29.77 837 24.72 4.4 39.9 73 -0.1 31.8
18:20 1008 29.77 837 24.72 4.4 39.9 72 -0.2 31.6
18:25 1008 29.77 837 24.72 5.1 41.1 68 -0.4 31.3
18:30 1008 29.77 837 24.72 5.2 41.4 69 0.1 32.1
18:35 1008 29.77 837 24.72 5.5 41.9 66 -0.4 31.3
18:40 1008 29.77 837 24.72 5.8 42.5 65 -0.2 31.7
18:45 1008 29.77 837 24.72 5.2 41.4 71 0.4 32.7
18:50 1008 29.77 837 24.72 5 40.9 70 0 32.1
18:55 1008 29.77 837 24.72 4.2 39.5 74 0 32
19:00 1008 29.77 837 24.72 3.7 38.6 75 -0.3 31.5
19:05 1008 29.77 837 24.72 3.2 37.8 78 -0.2 31.7
19:10 1008 29.77 837 24.72 3 37.4 79 -0.3 31.5
19:15 1008 29.77 837 24.72 2.7 36.9 79 -0.6 30.8
19:20 1008 29.77 837 24.72 2.5 36.5 79 -0.8 30.5
19:25 1008 29.77 837 24.72 2.4 36.3 79 -0.9 30.3
19:30 1008 29.77 837 24.72 2.3 36.1 77 -1.4 29.5
19:35 1008 29.77 837 24.72 2.2 36 78 -1.3 29.7
19:40 1008 29.77 837 24.72 2 35.7 82 -0.7 30.7
19:45 1008 29.77 837 24.72 2 35.5 81 -0.9 30.4
19:50 1008 29.77 837 24.72 1.8 35.2 83 -0.7 30.7
19:55 1008 29.77 837 24.72 1.7 35.1 84 -0.8 30.6
20:00 1008 29.77 837 24.72 1.6 34.9 84 -0.9 30.5
20:05 1008 29.77 837 24.72 1.5 34.7 84 -1 30.3
20:10 1008 29.77 837 24.72 1.4 34.4 84 -1 30.2
20:15 1008 29.77 837 24.72 1.3 34.4 84 -1.1 30
20:20 1008 29.77 837 24.72 1.3 34.3 84 -1.1 30
20:25 1008 29.77 838 24.75 1.2 34.2 84 -1.2 29.8
20:30 1008 29.77 838 24.75 1.1 34 85 -1.2 29.9
20:35 1008 29.77 838 24.75 1 33.8 85 -1.3 29.6
20:40 1008 29.77 838 24.75 1 33.9 84 -1.4 29.5
20:45 1008 29.77 838 24.75 1.1 33.9 83 -1.5 29.3
20:50 1009 29.8 838 24.75 0.8 33.4 85 -1.4 29.5
20:55 1009 29.8 838 24.75 0.5 32.9 87 -1.4 29.5
21:00 1009 29.8 838 24.75 0.5 32.8 88 -1.3 29.6
21:05 1009 29.8 838 24.75 0.4 32.7 88 -1.4 29.6
21:10 1009 29.8 838 24.75 0.3 32.6 89 -1.4 29.5
21:15 1009 29.8 838 24.75 0.4 32.7 89 -1.3 29.7
21:20 1009 29.8 838 24.75 0.5 33 88 -1.3 29.7
21:25 1009 29.8 838 24.75 0.8 33.4 87 -1.2 29.8
21:30 1008 29.77 838 24.75 0.9 33.5 86 -1.3 29.7
21:35 1009 29.8 838 24.75 0.9 33.6 86 -1.2 29.8
21:40 1009 29.8 838 24.75 0.9 33.6 86 -1.3 29.7
21:45 1009 29.8 838 24.75 0.9 33.7 85 -1.4 29.5
21:50 1009 29.8 839 24.78 0.9 33.7 84 -1.4 29.4
21:55 1009 29.8 838 24.75 0.9 33.6 85 -1.4 29.5
22:00 1009 29.8 838 24.75 0.8 33.4 85 -1.4 29.5
22:05 1009 29.8 838 24.75 0.7 33.3 85 -1.5 29.3
22:10 1009 29.8 838 24.75 0.8 33.4 84 -1.7 28.9
22:15 1009 29.8 838 24.75 0.9 33.6 82 -1.8 28.8
22:20 1009 29.8 838 24.75 1 33.8 82 -1.8 28.8
22:25 1009 29.8 838 24.75 1 33.8 81 -2 28.5
22:30 1009 29.8 838 24.75 1.1 34 80 -2 28.5
22:35 1009 29.8 838 24.75 1.1 34 79 -2.2 28.1
22:40 1009 29.8 838 24.75 1.2 34.2 79 -2.1 28.3
22:45 1009 29.8 838 24.75 1.2 34.1 79 -2.1 28.3
22:50 1009 29.8 838 24.75 1.1 34 79 -2.1 28.3
22:55 1009 29.8 838 24.75 1.1 34 80 -2 28.3
23:00 1009 29.8 838 24.75 1 33.9 79 -2.1 28.1
23:05 1009 29.8 838 24.75 1.1 34 78 -2.3 27.9
23:10 1009 29.8 838 24.75 1.2 34.1 78 -2.2 28
23:15 1009 29.8 838 24.75 1.1 34.1 78 -2.2 28
23:20 1009 29.8 838 24.75 1.2 34.1 78 -2.2 28
23:25 1009 29.8 838 24.75 1.2 34.2 79 -2.1 28.2
23:30 1009 29.8 838 24.75 1.2 34.1 79 -2 28.3
23:35 1009 29.8 838 24.75 1 33.8 81 -1.9 28.6
23:40 1009 29.8 839 24.78 0.7 33.3 83 -1.8 28.7
23:45 1009 29.8 839 24.78 0.4 32.8 84 -1.9 28.6
23:50 1009 29.8 839 24.78 0.4 32.7 84 -2 28.4
23:55 1010 29.83 839 24.78 0.3 32.5 85 -2 28.5
24:00 1010 29.83 839 24.78 0.3 32.5 83 -2.2 28